JAA weather

Jalalabad Airport
Nangarhar Province, Afghanistan

Public forecast

Using degrees Celsius for public forecast. Weather courtesy of forecast.io.

METAR (pilot weather report)

Closest report is Peshawar International Airport, 56.0 nm (103.8 km) ESE. Retrieved 2019/08/19 15:30 UTC (1 minute ago):

OPPS 191530Z 31006KT 5000 HZ FEW035 SCT100 28/22 Q1006

TAF (pilot weather forecast)

Retrieved 2019/08/19 16:22 UTC (0 seconds ago):

TAF OAJL 191610Z 1916/2022 10009KT 9999 FEW100 QNH2978INS BECMG 1920/1921 VRB06KT 8000 HZ SCT080 QNH2982INS BECMG 2003/2004 VRB06KT 9999 NSW FEW080 QNH2970INS BECMG 2009/2010 09010KT 9999 FEW180 QNH2964INS BECMG 2016/2017 VRB06KT 9999 FEW180 QNH2967INS TX37/2010Z TN25/2000Z